createdAt,value
2022-11-24T00:02:17.420Z,5.96
2022-11-24T00:04:43.981Z,5.94
2022-11-24T00:07:10.501Z,5.94
2022-11-24T00:09:36.966Z,5.93
2022-11-24T00:12:03.531Z,5.93
2022-11-24T00:14:30.068Z,5.94
2022-11-24T00:16:56.666Z,5.94
2022-11-24T00:19:23.177Z,5.93
2022-11-24T00:21:49.795Z,5.95
2022-11-24T00:24:16.222Z,6.01
2022-11-24T00:26:43.270Z,6.01
2022-11-24T00:29:11.192Z,6.00
2022-11-24T00:31:42.514Z,6.00
2022-11-24T00:34:14.359Z,6.03
2022-11-24T00:36:41.637Z,6.05
2022-11-24T00:39:11.902Z,6.11
2022-11-24T00:41:38.798Z,6.12
2022-11-24T00:44:05.805Z,6.17
2022-11-24T00:46:32.408Z,6.18
2022-11-24T00:49:00.555Z,6.18
2022-11-24T00:51:29.773Z,6.21
2022-11-24T00:54:01.010Z,6.25
2022-11-24T00:56:29.626Z,6.28
2022-11-24T00:58:56.331Z,6.32
2022-11-24T01:01:25.196Z,6.34
2022-11-24T01:03:52.056Z,6.40
2022-11-24T01:06:20.901Z,6.45
2022-11-24T01:08:48.009Z,6.47
2022-11-24T01:11:17.584Z,6.49
2022-11-24T01:13:46.051Z,6.52
2022-11-24T01:16:20.892Z,6.51
2022-11-24T01:18:47.744Z,6.53
2022-11-24T01:21:15.548Z,6.55
2022-11-24T01:23:42.017Z,6.57
2022-11-24T01:26:10.800Z,6.58
2022-11-24T01:28:40.625Z,6.60
2022-11-24T01:31:09.824Z,6.62
2022-11-24T01:33:36.783Z,6.62
2022-11-24T01:36:04.923Z,6.62
2022-11-24T01:38:31.489Z,6.62
2022-11-24T01:41:25.180Z,6.63
2022-11-24T01:43:53.453Z,6.62
2022-11-24T01:46:27.284Z,6.59
2022-11-24T01:49:00.251Z,6.60
2022-11-24T01:51:30.675Z,6.57
2022-11-24T01:54:02.530Z,6.61
2022-11-24T01:56:31.260Z,6.56
2022-11-24T01:59:01.330Z,6.55
2022-11-24T02:01:29.293Z,6.55
2022-11-24T02:03:56.736Z,6.56
2022-11-24T02:06:27.423Z,6.60
2022-11-24T02:09:16.467Z,6.63
2022-11-24T02:11:44.618Z,6.66
2022-11-24T02:14:13.766Z,6.70
2022-11-24T02:16:42.744Z,6.72
2022-11-24T02:19:19.315Z,6.76
2022-11-24T02:21:45.687Z,6.76
2022-11-24T02:24:32.977Z,6.77
2022-11-24T02:26:59.615Z,6.77
2022-11-24T02:29:25.980Z,6.74
2022-11-24T02:31:58.253Z,6.75
2022-11-24T02:34:24.609Z,6.77
2022-11-24T02:36:50.966Z,6.81
2022-11-24T02:39:17.627Z,6.83
2022-11-24T02:41:49.564Z,6.88
2022-11-24T02:44:20.138Z,6.91
2022-11-24T02:46:46.548Z,6.92
2022-11-24T02:49:12.929Z,6.94
2022-11-24T02:51:39.310Z,6.93
2022-11-24T02:54:05.746Z,6.95
2022-11-24T02:56:32.233Z,6.99
2022-11-24T02:58:58.688Z,6.99
2022-11-24T03:01:25.130Z,7.00
2022-11-24T03:03:51.563Z,7.03
2022-11-24T03:06:17.995Z,7.06
2022-11-24T03:08:44.466Z,7.07
2022-11-24T03:11:10.812Z,7.11
2022-11-24T03:13:37.276Z,7.08
2022-11-24T03:16:03.888Z,7.11
2022-11-24T03:18:30.286Z,7.12
2022-11-24T03:21:00.188Z,7.14
2022-11-24T03:23:26.618Z,7.15
2022-11-24T03:25:53.039Z,7.16
2022-11-24T03:28:19.464Z,7.16
2022-11-24T03:30:48.423Z,7.13
2022-11-24T03:33:14.830Z,7.14
2022-11-24T03:35:42.201Z,7.14
2022-11-24T03:38:08.594Z,7.17
2022-11-24T03:40:34.975Z,7.17
2022-11-24T03:43:01.442Z,7.21
2022-11-24T03:45:45.411Z,7.22
2022-11-24T03:48:13.234Z,7.22
2022-11-24T03:50:39.671Z,7.26
2022-11-24T03:53:06.117Z,7.30
2022-11-24T03:55:32.752Z,7.29
2022-11-24T03:57:59.169Z,7.32
2022-11-24T04:00:25.605Z,7.33
2022-11-24T04:02:52.019Z,7.34
2022-11-24T04:05:18.514Z,7.35
2022-11-24T04:07:44.987Z,7.35
2022-11-24T04:10:11.368Z,7.35
2022-11-24T04:12:46.520Z,7.39
2022-11-24T04:15:16.229Z,7.43
2022-11-24T04:17:43.293Z,7.48
2022-11-24T04:20:11.033Z,7.51
2022-11-24T04:22:37.769Z,7.52
2022-11-24T04:25:05.486Z,7.52
2022-11-24T04:27:36.254Z,7.54
2022-11-24T04:30:04.462Z,7.56
2022-11-24T04:32:30.808Z,7.60
2022-11-24T04:34:57.124Z,7.59
2022-11-24T04:37:23.541Z,7.58
2022-11-24T04:39:50.010Z,7.57
2022-11-24T04:42:16.356Z,7.57
2022-11-24T04:44:42.679Z,7.56
2022-11-24T04:47:15.948Z,7.58
2022-11-24T04:49:42.368Z,7.59
2022-11-24T04:52:08.704Z,7.58
2022-11-24T04:54:35.461Z,7.59
2022-11-24T04:57:02.142Z,7.57
2022-11-24T04:59:28.960Z,7.59
2022-11-24T05:01:55.336Z,7.60
2022-11-24T05:04:23.254Z,7.61
2022-11-24T05:06:49.655Z,7.61
2022-11-24T05:09:17.441Z,7.64
2022-11-24T05:11:44.075Z,7.67
2022-11-24T05:14:10.468Z,7.69
2022-11-24T05:16:37.752Z,7.70
2022-11-24T05:19:04.346Z,7.71
2022-11-24T05:21:30.676Z,7.69
2022-11-24T05:23:56.989Z,7.68
2022-11-24T05:26:23.413Z,7.63
2022-11-24T05:28:50.065Z,7.58
2022-11-24T05:31:16.452Z,7.51
2022-11-24T05:33:43.257Z,7.45
2022-11-24T05:36:29.997Z,7.37
2022-11-24T05:38:56.394Z,7.29
2022-11-24T05:41:22.851Z,7.24
2022-11-24T05:43:49.212Z,7.18
2022-11-24T05:46:15.618Z,7.12
2022-11-24T05:48:42.125Z,7.03
2022-11-24T05:51:09.486Z,6.93
2022-11-24T05:53:36.105Z,6.82
2022-11-24T05:56:04.086Z,6.72
2022-11-24T05:58:30.595Z,6.62
2022-11-24T06:00:56.919Z,6.52
2022-11-24T06:03:23.741Z,6.43
2022-11-24T06:05:50.137Z,6.35
2022-11-24T06:08:16.512Z,6.27
2022-11-24T06:10:42.861Z,6.19
2022-11-24T06:13:09.431Z,6.12
2022-11-24T06:15:37.583Z,6.07
2022-11-24T06:18:04.163Z,6.02
2022-11-24T06:20:32.879Z,5.97
2022-11-24T06:23:00.082Z,5.92
2022-11-24T06:25:26.875Z,5.89
2022-11-24T06:27:53.188Z,5.85
2022-11-24T06:30:19.615Z,5.81
2022-11-24T06:32:49.690Z,5.81
2022-11-24T06:35:16.567Z,5.79
2022-11-24T06:37:42.968Z,5.76
2022-11-24T06:40:09.896Z,5.75
2022-11-24T06:42:36.996Z,5.74
2022-11-24T06:45:08.788Z,5.76
2022-11-24T06:47:35.912Z,5.79
2022-11-24T06:50:02.236Z,5.86
2022-11-24T06:52:28.618Z,5.94
2022-11-24T06:54:55.096Z,6.02
2022-11-24T06:57:21.540Z,6.10
2022-11-24T06:59:47.896Z,6.21
2022-11-24T07:02:14.322Z,6.30
2022-11-24T07:04:40.663Z,6.41
2022-11-24T07:07:07.156Z,6.52
2022-11-24T07:09:33.518Z,6.59
2022-11-24T07:12:00.170Z,6.65
2022-11-24T07:14:26.614Z,6.72
2022-11-24T07:16:53.125Z,6.82
2022-11-24T07:19:24.497Z,6.87
2022-11-24T07:21:51.569Z,6.90
2022-11-24T07:24:17.962Z,6.94
2022-11-24T07:26:44.294Z,6.99
2022-11-24T07:29:10.641Z,7.04
2022-11-24T07:31:37.067Z,7.05
2022-11-24T07:34:03.536Z,7.07
2022-11-24T07:36:29.998Z,7.09
2022-11-24T07:38:56.352Z,7.13
2022-11-24T07:41:22.845Z,7.14
2022-11-24T07:43:49.531Z,7.20
2022-11-24T07:46:19.017Z,7.27
2022-11-24T07:48:46.039Z,7.31
2022-11-24T07:51:12.920Z,7.36
2022-11-24T07:53:39.513Z,7.45
2022-11-24T07:56:06.719Z,7.54
2022-11-24T07:58:36.041Z,7.63
2022-11-24T08:01:16.953Z,7.71
2022-11-24T08:03:44.735Z,7.81
2022-11-24T08:06:35.386Z,7.94
2022-11-24T08:08:59.778Z,8.08
2022-11-24T08:11:26.995Z,8.23
2022-11-24T08:13:53.478Z,8.32
2022-11-24T08:16:20.390Z,8.36
2022-11-24T08:18:54.808Z,8.40
2022-11-24T08:21:23.323Z,8.43
2022-11-24T08:23:53.413Z,8.47
2022-11-24T08:26:19.770Z,8.49
2022-11-24T08:28:47.283Z,8.50
2022-11-24T08:31:15.230Z,8.42
2022-11-24T08:33:42.003Z,8.48
2022-11-24T08:36:11.270Z,8.50
2022-11-24T08:38:37.698Z,8.50
2022-11-24T08:41:11.557Z,8.46
2022-11-24T08:43:38.437Z,8.52
2022-11-24T08:46:13.601Z,8.57
2022-11-24T08:48:40.314Z,8.59
2022-11-24T08:51:12.610Z,8.71
2022-11-24T08:53:40.462Z,8.79
2022-11-24T08:56:08.272Z,8.85
2022-11-24T08:58:35.050Z,8.93
2022-11-24T09:01:19.792Z,9.01
2022-11-24T09:03:50.806Z,9.03
2022-11-24T09:06:19.750Z,9.10
2022-11-24T09:08:46.075Z,9.10
2022-11-24T09:11:15.115Z,9.12
2022-11-24T09:13:41.760Z,9.19
2022-11-24T09:16:09.501Z,9.28
2022-11-24T09:18:36.207Z,9.29
2022-11-24T09:21:11.517Z,9.36
2022-11-24T09:23:38.887Z,9.47
2022-11-24T09:26:06.742Z,9.48
2022-11-24T09:28:33.420Z,9.53
2022-11-24T09:31:01.737Z,9.41
2022-11-24T09:33:28.828Z,9.23
2022-11-24T09:35:55.211Z,8.99
2022-11-24T09:38:22.796Z,8.83
2022-11-24T09:40:49.688Z,8.82
2022-11-24T09:43:37.961Z,8.71
2022-11-24T09:46:08.751Z,8.63
2022-11-24T09:48:40.735Z,8.54
2022-11-24T09:51:11.581Z,8.49
2022-11-24T09:53:47.149Z,8.48
2022-11-24T09:56:22.795Z,8.46
2022-11-24T09:58:53.316Z,8.39
2022-11-24T10:01:31.586Z,8.43
2022-11-24T10:04:04.238Z,8.40
2022-11-24T10:06:45.451Z,8.50
2022-11-24T10:09:25.707Z,8.57
2022-11-24T10:12:16.016Z,8.62
2022-11-24T10:15:12.167Z,8.73
2022-11-24T10:17:51.967Z,8.64
2022-11-24T10:20:21.857Z,8.59
2022-11-24T10:23:03.288Z,8.61
2022-11-24T10:25:52.877Z,8.63
2022-11-24T10:28:19.229Z,8.61
2022-11-24T10:30:45.600Z,8.65
2022-11-24T10:33:27.121Z,8.70
2022-11-24T10:36:06.387Z,8.71
2022-11-24T10:38:42.384Z,8.66
2022-11-24T10:41:16.562Z,8.63
2022-11-24T10:43:43.236Z,8.66
2022-11-24T10:46:19.620Z,8.72
2022-11-24T10:48:52.965Z,8.82
2022-11-24T10:51:52.931Z,8.78
2022-11-24T10:54:22.108Z,8.80
2022-11-24T10:56:52.494Z,8.77
2022-11-24T10:59:24.969Z,8.80
2022-11-24T11:01:53.117Z,8.81
2022-11-24T11:04:35.521Z,8.83
2022-11-24T11:07:20.156Z,8.79
2022-11-24T11:09:47.938Z,8.78
2022-11-24T11:12:43.808Z,8.79
2022-11-24T11:15:23.025Z,8.84
2022-11-24T11:17:52.307Z,8.95
2022-11-24T11:20:25.058Z,9.08
2022-11-24T11:22:51.530Z,9.11
2022-11-24T11:25:24.884Z,9.16
2022-11-24T11:27:51.297Z,9.23
2022-11-24T11:36:10.903Z,9.50
2022-11-24T11:38:38.781Z,9.52
2022-11-24T11:41:06.970Z,9.53
2022-11-24T11:43:37.595Z,9.50
2022-11-24T11:46:12.375Z,9.67
2022-11-24T11:48:44.085Z,9.73
2022-11-24T11:51:23.431Z,9.67
2022-11-24T11:54:02.708Z,9.60
2022-11-24T11:56:40.323Z,9.71
2022-11-24T11:59:34.262Z,9.87
2022-11-24T12:02:34.670Z,9.92
2022-11-24T12:05:11.626Z,9.90
2022-11-24T12:08:13.363Z,10.03
2022-11-24T12:10:48.078Z,10.19
2022-11-24T12:13:37.595Z,10.25
2022-11-24T12:16:30.840Z,10.28
2022-11-24T12:19:13.790Z,10.27
2022-11-24T12:21:58.708Z,10.31
2022-11-24T12:24:50.558Z,10.45
2022-11-24T12:27:40.714Z,10.56
2022-11-24T12:30:21.904Z,10.62
2022-11-24T12:33:06.249Z,10.58
2022-11-24T12:35:43.253Z,10.66
2022-11-24T12:38:27.732Z,10.72
2022-11-24T12:41:39.795Z,10.62
2022-11-24T12:44:00.901Z,10.43
2022-11-24T12:47:02.794Z,10.32
2022-11-24T12:49:55.371Z,10.25
2022-11-24T12:52:40.018Z,10.21
2022-11-24T12:55:15.378Z,10.15
2022-11-24T12:57:46.977Z,10.14
2022-11-24T13:00:23.767Z,10.27
2022-11-24T13:03:10.169Z,10.20
2022-11-24T13:06:08.719Z,10.09
2022-11-24T13:08:36.928Z,10.07
2022-11-24T13:11:21.392Z,9.91
2022-11-24T13:14:13.767Z,9.84
2022-11-24T13:19:49.725Z,9.65
2022-11-24T13:22:24.012Z,9.66
2022-11-24T13:25:35.634Z,9.54
2022-11-24T13:28:04.159Z,9.56
2022-11-24T13:30:33.199Z,9.46
2022-11-24T13:33:27.290Z,9.45
2022-11-24T13:36:02.834Z,9.42
2022-11-24T13:38:44.475Z,9.29
2022-11-24T13:41:32.138Z,9.31
2022-11-24T13:44:13.850Z,9.37
2022-11-24T13:47:06.691Z,9.26
2022-11-24T13:49:46.454Z,9.27
2022-11-24T13:52:40.521Z,9.16
2022-11-24T13:55:13.051Z,9.20
2022-11-24T13:57:51.533Z,9.22
2022-11-24T14:00:28.645Z,9.14
2022-11-24T14:03:03.524Z,9.16
2022-11-24T14:05:36.723Z,9.20
2022-11-24T14:08:05.657Z,9.20
2022-11-24T14:10:36.118Z,9.14
2022-11-24T14:13:23.816Z,9.13
2022-11-24T14:16:08.463Z,9.20
2022-11-24T14:18:36.974Z,9.24
2022-11-24T14:21:24.684Z,9.23
2022-11-24T14:23:53.122Z,9.18
2022-11-24T14:26:32.937Z,9.22
2022-11-24T14:29:12.646Z,9.20
2022-11-24T14:31:38.957Z,9.11
2022-11-24T14:34:11.109Z,9.10
2022-11-24T14:36:38.908Z,9.11
2022-11-24T14:39:05.815Z,9.12
2022-11-24T14:41:33.744Z,9.14
2022-11-24T14:44:15.117Z,9.13
2022-11-24T14:46:42.133Z,9.07
2022-11-24T14:49:08.662Z,9.04
2022-11-24T14:51:37.646Z,9.02
2022-11-24T14:54:12.254Z,8.99
2022-11-24T14:56:39.691Z,8.91
2022-11-24T14:59:23.795Z,8.88
2022-11-24T15:01:50.521Z,8.81
2022-11-24T15:04:54.824Z,8.82
2022-11-24T15:07:29.423Z,8.74
2022-11-24T15:09:58.355Z,8.68
2022-11-24T15:12:35.916Z,8.63
2022-11-24T15:15:02.300Z,8.58
2022-11-24T15:17:30.320Z,8.54
2022-11-24T15:20:01.993Z,8.52
2022-11-24T15:22:40.065Z,8.38
2022-11-24T15:25:33.403Z,8.24
2022-11-24T15:28:00.982Z,8.18
2022-11-24T15:30:27.396Z,8.08
2022-11-24T15:32:58.341Z,7.96
2022-11-24T15:35:26.818Z,7.86
2022-11-24T15:37:53.211Z,7.81
2022-11-24T15:40:20.272Z,7.75
2022-11-24T15:42:52.266Z,7.70
2022-11-24T15:45:20.305Z,7.67
2022-11-24T15:47:46.858Z,7.64
2022-11-24T15:50:14.287Z,7.60
2022-11-24T15:52:41.765Z,7.52
2022-11-24T15:55:16.565Z,7.46
2022-11-24T15:57:43.262Z,7.38
2022-11-24T16:00:21.378Z,7.31
2022-11-24T16:02:48.086Z,7.25
2022-11-24T16:05:15.904Z,7.16
2022-11-24T16:07:42.478Z,7.08
2022-11-24T16:10:33.652Z,7.04
2022-11-24T16:13:00.049Z,7.00
2022-11-24T16:15:26.518Z,7.01
2022-11-24T16:17:53.144Z,7.01
2022-11-24T16:20:19.879Z,7.04
2022-11-24T16:22:46.366Z,7.05
2022-11-24T16:25:13.497Z,7.07
2022-11-24T16:27:40.284Z,7.09
2022-11-24T16:30:07.832Z,7.08
2022-11-24T16:32:34.879Z,7.06
2022-11-24T16:35:01.194Z,7.02
2022-11-24T16:37:27.532Z,6.94
2022-11-24T16:39:54.005Z,6.89
2022-11-24T16:42:20.364Z,6.84
2022-11-24T16:44:46.697Z,6.76
2022-11-24T16:47:13.052Z,6.67
2022-11-24T16:49:39.644Z,6.60
2022-11-24T16:52:06.068Z,6.54
2022-11-24T16:54:33.002Z,6.46
2022-11-24T16:56:59.676Z,6.41
2022-11-24T16:59:26.098Z,6.38
2022-11-24T17:01:52.622Z,6.37
2022-11-24T17:04:19.080Z,6.36
2022-11-24T17:06:45.527Z,6.38
2022-11-24T17:09:12.209Z,6.39
2022-11-24T17:11:38.559Z,6.42
2022-11-24T17:14:04.897Z,6.44
2022-11-24T17:16:31.716Z,6.46
2022-11-24T17:18:58.726Z,6.49
2022-11-24T17:21:26.806Z,6.51
2022-11-24T17:23:57.287Z,6.56
2022-11-24T17:26:24.830Z,6.58
2022-11-24T17:28:51.362Z,6.62
2022-11-24T17:31:25.149Z,6.66
2022-11-24T17:33:54.311Z,6.66
2022-11-24T17:36:21.694Z,6.67
2022-11-24T17:38:51.395Z,6.64
2022-11-24T17:41:18.983Z,6.60
2022-11-24T17:43:55.931Z,6.53
2022-11-24T17:46:23.724Z,6.50
2022-11-24T17:48:50.357Z,6.44
2022-11-24T17:51:19.371Z,6.41
2022-11-24T17:53:47.462Z,6.39
2022-11-24T17:56:16.455Z,6.37
2022-11-24T17:58:43.537Z,6.37
2022-11-24T18:01:11.014Z,6.36
2022-11-24T18:03:39.167Z,6.36
2022-11-24T18:06:10.535Z,6.32
2022-11-24T18:08:38.328Z,6.25
2022-11-24T18:11:08.251Z,6.18
2022-11-24T18:13:55.880Z,6.13
2022-11-24T18:16:21.231Z,6.05
2022-11-24T18:18:50.428Z,5.96
2022-11-24T18:21:17.674Z,5.88
2022-11-24T18:23:44.716Z,5.78
2022-11-24T18:26:14.858Z,5.69
2022-11-24T18:28:43.073Z,5.58
2022-11-24T18:31:12.309Z,5.45
2022-11-24T18:33:42.575Z,5.35
2022-11-24T18:36:13.750Z,5.24
2022-11-24T18:38:40.286Z,5.17
2022-11-24T18:41:07.509Z,5.16
2022-11-24T18:43:36.106Z,5.13
2022-11-24T18:46:07.634Z,5.12
2022-11-24T18:48:34.502Z,5.13
2022-11-24T18:51:01.008Z,5.16
2022-11-24T18:53:28.019Z,5.22
2022-11-24T18:56:06.471Z,5.29
2022-11-24T18:58:34.319Z,5.34
2022-11-24T19:01:12.889Z,5.40
2022-11-24T19:03:48.679Z,5.45
2022-11-24T19:06:37.632Z,5.49
2022-11-24T19:09:15.553Z,5.52
2022-11-24T19:11:44.119Z,5.52
2022-11-24T19:14:14.079Z,5.53
2022-11-24T19:16:40.931Z,5.55
2022-11-24T19:19:08.046Z,5.55
2022-11-24T19:21:37.390Z,5.56
2022-11-24T19:24:06.007Z,5.53
2022-11-24T19:26:35.008Z,5.54
2022-11-24T19:29:01.801Z,5.58
2022-11-24T19:31:28.340Z,5.61
2022-11-24T19:33:59.890Z,5.64
2022-11-24T19:36:26.484Z,5.63
2022-11-24T19:38:55.292Z,5.61
2022-11-24T19:41:24.213Z,5.60
2022-11-24T19:43:53.359Z,5.58
2022-11-24T19:46:20.569Z,5.49
2022-11-24T19:48:54.521Z,5.41
2022-11-24T19:51:27.331Z,5.37
2022-11-24T19:53:54.248Z,5.35
2022-11-24T19:56:22.527Z,5.36
2022-11-24T19:58:50.160Z,5.35
2022-11-24T20:01:19.799Z,5.32
2022-11-24T20:03:49.404Z,5.34
2022-11-24T20:06:16.367Z,5.37
2022-11-24T20:08:43.271Z,5.36
2022-11-24T20:11:19.479Z,5.37
2022-11-24T20:13:47.222Z,5.37
2022-11-24T20:16:29.530Z,5.39
2022-11-24T20:18:59.336Z,5.38
2022-11-24T20:21:28.713Z,5.38
2022-11-24T20:24:08.486Z,5.43
2022-11-24T20:26:41.157Z,5.48
2022-11-24T20:29:09.810Z,5.48
2022-11-24T20:31:39.491Z,5.47
2022-11-24T20:34:07.131Z,5.50
2022-11-24T20:36:35.927Z,5.51
2022-11-24T20:39:04.879Z,5.53
2022-11-24T20:41:33.866Z,5.57
2022-11-24T20:44:04.956Z,5.60
2022-11-24T20:46:34.112Z,5.58
2022-11-24T20:49:00.627Z,5.53
2022-11-24T20:51:36.246Z,5.45
2022-11-24T20:54:06.055Z,5.34
2022-11-24T20:56:36.813Z,5.24
2022-11-24T20:59:04.632Z,5.15
2022-11-24T21:01:38.367Z,5.03
2022-11-24T21:04:06.608Z,4.88
2022-11-24T21:06:33.358Z,4.76
2022-11-24T21:09:03.693Z,4.64
2022-11-24T21:11:30.959Z,4.55
2022-11-24T21:13:57.527Z,4.48
2022-11-24T21:16:29.812Z,4.42
2022-11-24T21:18:59.530Z,4.36
2022-11-24T21:21:33.228Z,4.33
2022-11-24T21:24:09.804Z,4.29
2022-11-24T21:26:37.867Z,4.20
2022-11-24T21:29:05.137Z,4.16
2022-11-24T21:31:35.820Z,4.06
2022-11-24T21:34:02.538Z,4.01
2022-11-24T21:36:30.786Z,3.96
2022-11-24T21:38:58.871Z,3.91
2022-11-24T21:41:27.722Z,3.89
2022-11-24T21:43:57.513Z,3.80
2022-11-24T21:46:24.563Z,3.71
2022-11-24T21:48:51.301Z,3.64
2022-11-24T21:51:20.413Z,3.58
2022-11-24T21:53:47.524Z,3.52
2022-11-24T21:56:21.496Z,3.50
2022-11-24T21:58:58.050Z,3.47
2022-11-24T22:01:27.821Z,3.41
2022-11-24T22:03:54.881Z,3.35
2022-11-24T22:06:21.653Z,3.30
2022-11-24T22:08:49.285Z,3.27
2022-11-24T22:11:18.968Z,3.23
2022-11-24T22:13:47.082Z,3.18
2022-11-24T22:16:16.261Z,3.15
2022-11-24T22:18:44.028Z,3.12
2022-11-24T22:21:12.814Z,3.06
2022-11-24T22:23:39.331Z,3.02
2022-11-24T22:26:19.434Z,2.98
2022-11-24T22:28:46.370Z,2.92
2022-11-24T22:31:15.638Z,2.88
2022-11-24T22:33:43.587Z,2.84
2022-11-24T22:36:11.174Z,2.83
2022-11-24T22:38:37.917Z,2.82
2022-11-24T22:41:09.138Z,2.81
2022-11-24T22:43:37.104Z,2.80
2022-11-24T22:46:15.079Z,2.78
2022-11-24T22:48:41.980Z,2.73
2022-11-24T22:51:10.690Z,2.68
2022-11-24T22:53:37.653Z,2.63
2022-11-24T22:56:06.115Z,2.61
2022-11-24T22:58:33.802Z,2.58
2022-11-24T23:01:14.435Z,2.56
2022-11-24T23:03:41.656Z,2.56
2022-11-24T23:06:20.223Z,2.56
2022-11-24T23:08:46.901Z,2.57
2022-11-24T23:11:16.177Z,2.59
2022-11-24T23:13:43.532Z,2.61
2022-11-24T23:16:18.219Z,2.60
2022-11-24T23:18:51.089Z,2.58
2022-11-24T23:21:38.565Z,2.54
2022-11-24T23:24:06.866Z,2.53
2022-11-24T23:26:39.227Z,2.52
2022-11-24T23:29:06.541Z,2.49
2022-11-24T23:31:33.430Z,2.47
2022-11-24T23:34:02.510Z,2.45
2022-11-24T23:36:29.873Z,2.43
2022-11-24T23:38:56.829Z,2.40
2022-11-24T23:41:25.523Z,2.42
2022-11-24T23:43:52.458Z,2.40
2022-11-24T23:46:21.638Z,2.37
2022-11-24T23:48:49.127Z,2.31
2022-11-24T23:51:20.663Z,2.27
2022-11-24T23:53:48.353Z,2.23
2022-11-24T23:56:19.789Z,2.19
2022-11-24T23:58:46.968Z,2.14
